PWSweather.com
Personal Weather Stations
Station Observations
SD92115WX
El Cerrito Stoneybluff, San Diego, CA 92115

El Cerrito StoneybluffSan Diego, CA 92115

Lat: 32.754096, Lon: -117.066705

Elevation: 420

Station Type: Davis Vantage Vue

http://stoneybluff.com

High Low Average
Temperature 65.7°F18.7°C 56.8°F13.8°C 60.0°F15.6°C
Dew Point 57.4°F14.1°C 51.6°F10.9°C 54.8°F12.7°C
Winds 7.4 mph 11.9 kmh Calm Calm 2.0 mph SSW3.2 kmh SSW
Wind Gusts 15.9 mph25.6 kmh -- 4.0 mph6.4 kmh
Humidity 97% 64% 84%
Pressure 29.99 in1015.6 mb 29.78 in1008.5 mb -
Precipitation 0.09 in2.3 mm - -
Hour Temp Dew Point Humidity Winds Wind Gusts Pressure Precip Precip Rate Daily Precip Total
12:01 AM 62.8°F17.1°C 51.6°F10.9°C 67% 0.4 mph E0.6 kmh E 2.0 mph3.2 kmh 29.80 in1009.1 mb 0.00 in0.0 mm 0.00 in0.0 mm 0.00 in0.0 mm
12:06 AM 62.8°F17.1°C 51.6°F10.9°C 67% Calm Calm 1.1 mph1.8 kmh 29.80 in1009.1 mb 0.00 in0.0 mm 0.00 in0.0 mm 0.00 in0.0 mm
12:11 AM 63.1°F17.3°C 52.0°F11.1°C 67% 0.2 mph E0.3 kmh E 2.0 mph3.2 kmh 29.79 in1008.8 mb 0.00 in0.0 mm 0.00 in0.0 mm 0.00 in0.0 mm
12:16 AM 63.1°F17.3°C 51.6°F10.9°C 66% Calm Calm 1.1 mph1.8 kmh 29.79 in1008.8 mb 0.00 in0.0 mm 0.00 in0.0 mm 0.00 in0.0 mm
12:21 AM 63.1°F17.3°C 52.0°F11.1°C 67% Calm Calm -- 29.79 in1008.8 mb 0.00 in0.0 mm 0.00 in0.0 mm 0.00 in0.0 mm
12:26 AM 63.1°F17.3°C 52.0°F11.1°C 67% Calm Calm 1.1 mph1.8 kmh 29.79 in1008.8 mb 0.00 in0.0 mm 0.00 in0.0 mm 0.00 in0.0 mm
12:31 AM 63.3°F17.4°C 52.2°F11.2°C 67% Calm Calm -- 29.79 in1008.8 mb 0.00 in0.0 mm 0.00 in0.0 mm 0.00 in0.0 mm
12:36 AM 63.3°F17.4°C 52.2°F11.2°C 67% Calm Calm 1.1 mph1.8 kmh 29.79 in1008.8 mb 0.00 in0.0 mm 0.00 in0.0 mm 0.00 in0.0 mm
12:41 AM 63.5°F17.5°C 52.3°F11.3°C 67% Calm Calm 1.1 mph1.8 kmh 29.78 in1008.5 mb 0.00 in0.0 mm 0.00 in0.0 mm 0.00 in0.0 mm
12:46 AM 63.7°F17.6°C 52.5°F11.4°C 67% Calm Calm -- 29.78 in1008.5 mb 0.00 in0.0 mm 0.00 in0.0 mm 0.00 in0.0 mm
12:51 AM 63.7°F17.6°C 52.5°F11.4°C 67% Calm Calm 1.1 mph1.8 kmh 29.78 in1008.5 mb 0.00 in0.0 mm 0.00 in0.0 mm 0.00 in0.0 mm
12:56 AM 63.5°F17.5°C 52.3°F11.3°C 67% Calm Calm -- 29.78 in1008.5 mb 0.00 in0.0 mm 0.00 in0.0 mm 0.00 in0.0 mm
01:01 AM 63.3°F17.4°C 52.5°F11.4°C 68% Calm Calm -- 29.78 in1008.5 mb 0.00 in0.0 mm 0.00 in0.0 mm 0.00 in0.0 mm
01:06 AM 63.0°F17.2°C 52.7°F11.5°C 69% Calm Calm -- 29.78 in1008.5 mb 0.00 in0.0 mm 0.00 in0.0 mm 0.00 in0.0 mm
01:11 AM 62.8°F17.1°C 52.5°F11.4°C 69% Calm Calm -- 29.78 in1008.5 mb 0.00 in0.0 mm 0.00 in0.0 mm 0.00 in0.0 mm
01:16 AM 62.4°F16.9°C 52.5°F11.4°C 70% Calm Calm -- 29.78 in1008.5 mb 0.00 in0.0 mm 0.00 in0.0 mm 0.00 in0.0 mm
01:21 AM 62.4°F16.9°C 52.5°F11.4°C 70% Calm Calm -- 29.78 in1008.5 mb 0.00 in0.0 mm 0.00 in0.0 mm 0.00 in0.0 mm
01:26 AM 62.8°F17.1°C 52.9°F11.6°C 70% Calm Calm -- 29.78 in1008.5 mb 0.00 in0.0 mm 0.00 in0.0 mm 0.00 in0.0 mm
01:31 AM 63.0°F17.2°C 52.7°F11.5°C 69% Calm Calm -- 29.79 in1008.8 mb 0.00 in0.0 mm 0.00 in0.0 mm 0.00 in0.0 mm
01:36 AM 63.5°F17.5°C 52.7°F11.5°C 68% Calm Calm 1.1 mph1.8 kmh 29.79 in1008.8 mb 0.00 in0.0 mm 0.00 in0.0 mm 0.00 in0.0 mm
01:41 AM 64.0°F17.8°C 52.9°F11.6°C 67% 0.4 mph SE0.6 kmh SE 2.0 mph3.2 kmh 29.79 in1008.8 mb 0.00 in0.0 mm 0.00 in0.0 mm 0.00 in0.0 mm
01:46 AM 64.2°F17.9°C 53.1°F11.7°C 67% 0.7 mph ENE1.1 kmh ENE 2.0 mph3.2 kmh 29.79 in1008.8 mb 0.00 in0.0 mm 0.00 in0.0 mm 0.00 in0.0 mm
01:51 AM 64.8°F18.2°C 53.1°F11.7°C 66% Calm Calm 2.0 mph3.2 kmh 29.79 in1008.8 mb 0.00 in0.0 mm 0.00 in0.0 mm 0.00 in0.0 mm
01:56 AM 64.2°F17.9°C 53.1°F11.7°C 67% Calm Calm -- 29.79 in1008.8 mb 0.00 in0.0 mm 0.00 in0.0 mm 0.00 in0.0 mm
02:01 AM 64.2°F17.9°C 53.1°F11.7°C 67% Calm Calm -- 29.79 in1008.8 mb 0.00 in0.0 mm 0.00 in0.0 mm 0.00 in0.0 mm
02:06 AM 64.2°F17.9°C 54.3°F12.4°C 70% Calm Calm -- 29.78 in1008.5 mb 0.00 in0.0 mm 0.00 in0.0 mm 0.00 in0.0 mm
02:11 AM 63.7°F17.6°C 53.8°F12.1°C 70% Calm Calm -- 29.78 in1008.5 mb 0.00 in0.0 mm 0.00 in0.0 mm 0.00 in0.0 mm
02:16 AM 63.1°F17.3°C 53.6°F12.0°C 71% Calm Calm -- 29.78 in1008.5 mb 0.00 in0.0 mm 0.00 in0.0 mm 0.00 in0.0 mm
02:21 AM 62.8°F17.1°C 53.6°F12.0°C 72% Calm Calm -- 29.79 in1008.8 mb 0.00 in0.0 mm 0.00 in0.0 mm 0.00 in0.0 mm
02:26 AM 63.0°F17.2°C 53.8°F12.1°C 72% Calm Calm -- 29.79 in1008.8 mb 0.00 in0.0 mm 0.00 in0.0 mm 0.00 in0.0 mm
02:31 AM 63.3°F17.4°C 53.8°F12.1°C 71% Calm Calm 1.1 mph1.8 kmh 29.80 in1009.1 mb 0.00 in0.0 mm 0.00 in0.0 mm 0.00 in0.0 mm
02:36 AM 63.7°F17.6°C 54.1°F12.3°C 71% 0.2 mph SE0.3 kmh SE 1.1 mph1.8 kmh 29.79 in1008.8 mb 0.00 in0.0 mm 0.00 in0.0 mm 0.00 in0.0 mm
02:41 AM 63.5°F17.5°C 54.0°F12.2°C 71% Calm Calm -- 29.79 in1008.8 mb 0.00 in0.0 mm 0.00 in0.0 mm 0.00 in0.0 mm
02:46 AM 63.3°F17.4°C 53.8°F12.1°C 71% 0.4 mph SE0.6 kmh SE 2.0 mph3.2 kmh 29.80 in1009.1 mb 0.00 in0.0 mm 0.00 in0.0 mm 0.00 in0.0 mm
02:51 AM 63.0°F17.2°C 53.8°F12.1°C 72% 3.4 mph SSW5.5 kmh SSW 6.3 mph10.1 kmh 29.80 in1009.1 mb 0.00 in0.0 mm 0.00 in0.0 mm 0.00 in0.0 mm
02:57 AM 63.3°F17.4°C 53.8°F12.1°C 71% 2.7 mph SW4.3 kmh SW 5.4 mph8.7 kmh 29.80 in1009.1 mb 0.00 in0.0 mm 0.00 in0.0 mm 0.00 in0.0 mm
03:02 AM 63.0°F17.2°C 53.8°F12.1°C 72% 1.1 mph WSW1.8 kmh WSW 4.3 mph6.9 kmh 29.80 in1009.1 mb 0.00 in0.0 mm 0.00 in0.0 mm 0.00 in0.0 mm
03:07 AM 62.8°F17.1°C 53.6°F12.0°C 72% 0.2 mph W0.3 kmh W 2.0 mph3.2 kmh 29.80 in1009.1 mb 0.00 in0.0 mm 0.00 in0.0 mm 0.00 in0.0 mm
03:12 AM 62.2°F16.8°C 53.8°F12.1°C 74% 0.9 mph S1.4 kmh S 3.1 mph5.0 kmh 29.80 in1009.1 mb 0.00 in0.0 mm 0.00 in0.0 mm 0.00 in0.0 mm
03:17 AM 62.1°F16.7°C 54.0°F12.2°C 75% 2.7 mph SW4.3 kmh SW 4.3 mph6.9 kmh 29.80 in1009.1 mb 0.00 in0.0 mm 0.00 in0.0 mm 0.00 in0.0 mm
03:22 AM 61.9°F16.6°C 54.3°F12.4°C 76% 2.0 mph SE3.2 kmh SE 4.3 mph6.9 kmh 29.80 in1009.1 mb 0.00 in0.0 mm 0.00 in0.0 mm 0.00 in0.0 mm
03:27 AM 61.7°F16.5°C 54.1°F12.3°C 76% 1.3 mph S2.1 kmh S 3.1 mph5.0 kmh 29.80 in1009.1 mb 0.00 in0.0 mm 0.00 in0.0 mm 0.00 in0.0 mm
03:32 AM 61.5°F16.4°C 54.3°F12.4°C 77% 1.6 mph S2.6 kmh S 4.3 mph6.9 kmh 29.80 in1009.1 mb 0.00 in0.0 mm 0.00 in0.0 mm 0.00 in0.0 mm
03:37 AM 61.3°F16.3°C 54.1°F12.3°C 77% 0.4 mph WSW0.6 kmh WSW 4.3 mph6.9 kmh 29.80 in1009.1 mb 0.00 in0.0 mm 0.00 in0.0 mm 0.00 in0.0 mm
03:42 AM 61.3°F16.3°C 54.5°F12.5°C 78% 6.9 mph NNW11.1 kmh NNW 14.8 mph23.8 kmh 29.84 in1010.5 mb 0.01 in0.3 mm 0.12 in3.0 mm 0.01 in0.3 mm
03:47 AM 61.2°F16.2°C 54.7°F12.6°C 79% 4.5 mph WNW7.2 kmh WNW 15.9 mph25.6 kmh 29.83 in1010.2 mb 0.01 in0.3 mm 0.00 in0.0 mm 0.01 in0.3 mm
03:52 AM 60.4°F15.8°C 54.3°F12.4°C 80% 4.9 mph W7.9 kmh W 9.6 mph15.4 kmh 29.84 in1010.5 mb 0.01 in0.3 mm 0.00 in0.0 mm 0.01 in0.3 mm
03:57 AM 60.3°F15.7°C 54.1°F12.3°C 80% 6.3 mph SW10.1 kmh SW 14.8 mph23.8 kmh 29.85 in1010.8 mb 0.01 in0.3 mm 0.00 in0.0 mm 0.01 in0.3 mm
04:02 AM 60.8°F16.0°C 52.9°F11.6°C 75% 7.4 mph WSW11.9 kmh WSW 14.8 mph23.8 kmh 29.86 in1011.2 mb 0.01 in0.3 mm 0.00 in0.0 mm 0.01 in0.3 mm
04:07 AM 60.6°F15.9°C 53.1°F11.7°C 76% 2.9 mph S4.7 kmh S 7.4 mph11.9 kmh 29.85 in1010.8 mb 0.01 in0.3 mm 0.00 in0.0 mm 0.01 in0.3 mm
04:12 AM 60.3°F15.7°C 53.1°F11.7°C 77% 3.1 mph WSW5.0 kmh WSW 9.6 mph15.4 kmh 29.86 in1011.2 mb 0.01 in0.3 mm 0.00 in0.0 mm 0.01 in0.3 mm
04:17 AM 60.1°F15.6°C 53.2°F11.8°C 78% 2.2 mph SW3.5 kmh SW 5.4 mph8.7 kmh 29.85 in1010.8 mb 0.01 in0.3 mm 0.00 in0.0 mm 0.01 in0.3 mm
04:22 AM 59.7°F15.4°C 52.9°F11.6°C 78% 0.4 mph W0.6 kmh W 4.3 mph6.9 kmh 29.86 in1011.2 mb 0.01 in0.3 mm 0.00 in0.0 mm 0.01 in0.3 mm
04:27 AM 59.7°F15.4°C 53.2°F11.8°C 79% 1.1 mph SW1.8 kmh SW 3.1 mph5.0 kmh 29.86 in1011.2 mb 0.01 in0.3 mm 0.00 in0.0 mm 0.01 in0.3 mm
04:32 AM 59.5°F15.3°C 53.1°F11.7°C 79% 0.4 mph SW0.6 kmh SW 3.1 mph5.0 kmh 29.85 in1010.8 mb 0.01 in0.3 mm 0.00 in0.0 mm 0.01 in0.3 mm
04:37 AM 59.5°F15.3°C 53.1°F11.7°C 79% 1.3 mph SW2.1 kmh SW 3.1 mph5.0 kmh 29.86 in1011.2 mb 0.01 in0.3 mm 0.00 in0.0 mm 0.01 in0.3 mm
04:42 AM 59.4°F15.2°C 52.9°F11.6°C 79% 1.3 mph SW2.1 kmh SW 3.1 mph5.0 kmh 29.87 in1011.5 mb 0.00 in0.0 mm 0.00 in0.0 mm 0.01 in0.3 mm
04:47 AM 59.4°F15.2°C 53.2°F11.8°C 80% 0.2 mph SSE0.3 kmh SSE 1.1 mph1.8 kmh 29.86 in1011.2 mb 0.00 in0.0 mm 0.00 in0.0 mm 0.01 in0.3 mm
04:52 AM 59.2°F15.1°C 53.4°F11.9°C 81% 0.9 mph WSW1.4 kmh WSW 2.0 mph3.2 kmh 29.87 in1011.5 mb 0.00 in0.0 mm 0.00 in0.0 mm 0.01 in0.3 mm
04:57 AM 59.2°F15.1°C 53.4°F11.9°C 81% Calm Calm -- 29.88 in1011.9 mb 0.00 in0.0 mm 0.00 in0.0 mm 0.01 in0.3 mm
05:02 AM 59.0°F15.0°C 53.6°F12.0°C 82% 0.2 mph W0.3 kmh W 1.1 mph1.8 kmh 29.88 in1011.9 mb 0.00 in0.0 mm 0.00 in0.0 mm 0.01 in0.3 mm
05:07 AM 58.8°F14.9°C 53.6°F12.0°C 83% 1.3 mph NW2.1 kmh NW 3.1 mph5.0 kmh 29.88 in1011.9 mb 0.00 in0.0 mm 0.00 in0.0 mm 0.01 in0.3 mm
05:12 AM 58.6°F14.8°C 53.4°F11.9°C 83% 0.9 mph NNW1.4 kmh NNW 3.1 mph5.0 kmh 29.88 in1011.9 mb 0.00 in0.0 mm 0.00 in0.0 mm 0.01 in0.3 mm
05:17 AM 58.5°F14.7°C 53.6°F12.0°C 84% Calm Calm 2.0 mph3.2 kmh 29.88 in1011.9 mb 0.00 in0.0 mm 0.00 in0.0 mm 0.01 in0.3 mm
05:22 AM 58.3°F14.6°C 53.4°F11.9°C 84% Calm Calm -- 29.88 in1011.9 mb 0.00 in0.0 mm 0.00 in0.0 mm 0.01 in0.3 mm
05:27 AM 58.3°F14.6°C 53.8°F12.1°C 85% Calm Calm -- 29.89 in1012.2 mb 0.00 in0.0 mm 0.00 in0.0 mm 0.01 in0.3 mm
05:32 AM 58.1°F14.5°C 53.6°F12.0°C 85% 0.7 mph W1.1 kmh W 1.1 mph1.8 kmh 29.89 in1012.2 mb 0.00 in0.0 mm 0.00 in0.0 mm 0.01 in0.3 mm
05:37 AM 58.1°F14.5°C 53.6°F12.0°C 85% Calm Calm -- 29.90 in1012.5 mb 0.00 in0.0 mm 0.00 in0.0 mm 0.01 in0.3 mm
05:42 AM 57.9°F14.4°C 53.4°F11.9°C 85% Calm Calm -- 29.90 in1012.5 mb 0.00 in0.0 mm 0.00 in0.0 mm 0.01 in0.3 mm
05:47 AM 57.9°F14.4°C 53.4°F11.9°C 85% Calm Calm -- 29.90 in1012.5 mb 0.00 in0.0 mm 0.00 in0.0 mm 0.01 in0.3 mm
05:52 AM 57.9°F14.4°C 53.4°F11.9°C 85% Calm Calm -- 29.91 in1012.9 mb 0.00 in0.0 mm 0.00 in0.0 mm 0.01 in0.3 mm
05:57 AM 57.7°F14.3°C 53.6°F12.0°C 86% Calm Calm -- 29.91 in1012.9 mb 0.00 in0.0 mm 0.00 in0.0 mm 0.01 in0.3 mm
06:02 AM 57.6°F14.2°C 53.4°F11.9°C 86% Calm Calm -- 29.91 in1012.9 mb 0.00 in0.0 mm 0.00 in0.0 mm 0.01 in0.3 mm
06:07 AM 57.4°F14.1°C 53.2°F11.8°C 86% Calm Calm -- 29.92 in1013.2 mb 0.00 in0.0 mm 0.00 in0.0 mm 0.01 in0.3 mm
06:12 AM 57.4°F14.1°C 53.6°F12.0°C 87% Calm Calm -- 29.92 in1013.2 mb 0.00 in0.0 mm 0.00 in0.0 mm 0.01 in0.3 mm
06:17 AM 57.0°F13.9°C 53.2°F11.8°C 87% Calm Calm -- 29.92 in1013.2 mb 0.00 in0.0 mm 0.00 in0.0 mm 0.01 in0.3 mm
06:22 AM 57.0°F13.9°C 53.4°F11.9°C 88% Calm Calm -- 29.92 in1013.2 mb 0.00 in0.0 mm 0.00 in0.0 mm 0.01 in0.3 mm
06:27 AM 57.0°F13.9°C 53.4°F11.9°C 88% Calm Calm -- 29.92 in1013.2 mb 0.00 in0.0 mm 0.00 in0.0 mm 0.01 in0.3 mm
06:32 AM 57.0°F13.9°C 53.8°F12.1°C 89% Calm Calm -- 29.93 in1013.5 mb 0.00 in0.0 mm 0.00 in0.0 mm 0.01 in0.3 mm
06:37 AM 56.8°F13.8°C 53.6°F12.0°C 89% Calm Calm -- 29.93 in1013.5 mb 0.00 in0.0 mm 0.00 in0.0 mm 0.01 in0.3 mm
06:42 AM 56.8°F13.8°C 53.6°F12.0°C 89% Calm Calm -- 29.94 in1013.9 mb 0.00 in0.0 mm 0.00 in0.0 mm 0.01 in0.3 mm
06:47 AM 56.8°F13.8°C 53.6°F12.0°C 89% Calm Calm -- 29.94 in1013.9 mb 0.00 in0.0 mm 0.00 in0.0 mm 0.01 in0.3 mm
06:52 AM 56.8°F13.8°C 54.0°F12.2°C 90% Calm Calm -- 29.94 in1013.9 mb 0.00 in0.0 mm 0.00 in0.0 mm 0.01 in0.3 mm
06:57 AM 56.8°F13.8°C 54.0°F12.2°C 90% Calm Calm -- 29.95 in1014.2 mb 0.00 in0.0 mm 0.00 in0.0 mm 0.01 in0.3 mm
07:02 AM 56.8°F13.8°C 54.0°F12.2°C 90% Calm Calm -- 29.95 in1014.2 mb 0.00 in0.0 mm 0.00 in0.0 mm 0.01 in0.3 mm
07:07 AM 57.0°F13.9°C 54.1°F12.3°C 90% Calm Calm -- 29.95 in1014.2 mb 0.00 in0.0 mm 0.00 in0.0 mm 0.01 in0.3 mm
07:12 AM 57.4°F14.1°C 54.5°F12.5°C 90% Calm Calm -- 29.95 in1014.2 mb 0.00 in0.0 mm 0.00 in0.0 mm 0.01 in0.3 mm
07:17 AM 57.6°F14.2°C 54.7°F12.6°C 90% 0.2 mph ENE0.3 kmh ENE 1.1 mph1.8 kmh 29.95 in1014.2 mb 0.00 in0.0 mm 0.00 in0.0 mm 0.01 in0.3 mm
07:22 AM 57.7°F14.3°C 54.9°F12.7°C 90% Calm Calm 1.1 mph1.8 kmh 29.95 in1014.2 mb 0.00 in0.0 mm 0.00 in0.0 mm 0.01 in0.3 mm
07:27 AM 58.1°F14.5°C 55.2°F12.9°C 90% Calm Calm 1.1 mph1.8 kmh 29.96 in1014.6 mb 0.00 in0.0 mm 0.00 in0.0 mm 0.01 in0.3 mm
07:32 AM 58.3°F14.6°C 55.4°F13.0°C 90% Calm Calm -- 29.96 in1014.6 mb 0.00 in0.0 mm 0.00 in0.0 mm 0.01 in0.3 mm
07:37 AM 58.6°F14.8°C 55.8°F13.2°C 90% Calm Calm 1.1 mph1.8 kmh 29.96 in1014.6 mb 0.00 in0.0 mm 0.00 in0.0 mm 0.01 in0.3 mm
07:42 AM 58.8°F14.9°C 55.9°F13.3°C 90% Calm Calm -- 29.96 in1014.6 mb 0.00 in0.0 mm 0.00 in0.0 mm 0.01 in0.3 mm
07:47 AM 59.2°F15.1°C 55.9°F13.3°C 89% 0.2 mph E0.3 kmh E 1.1 mph1.8 kmh 29.96 in1014.6 mb 0.00 in0.0 mm 0.00 in0.0 mm 0.01 in0.3 mm
07:52 AM 59.4°F15.2°C 55.8°F13.2°C 88% 0.2 mph SE0.3 kmh SE 2.0 mph3.2 kmh 29.96 in1014.6 mb 0.00 in0.0 mm 0.00 in0.0 mm 0.01 in0.3 mm
07:57 AM 59.5°F15.3°C 55.4°F13.0°C 86% 0.4 mph SE0.6 kmh SE 3.1 mph5.0 kmh 29.96 in1014.6 mb 0.00 in0.0 mm 0.00 in0.0 mm 0.01 in0.3 mm
08:02 AM 59.5°F15.3°C 55.0°F12.8°C 85% 0.9 mph SSE1.4 kmh SSE 3.1 mph5.0 kmh 29.96 in1014.6 mb 0.00 in0.0 mm 0.00 in0.0 mm 0.01 in0.3 mm
08:07 AM 59.7°F15.4°C 54.9°F12.7°C 84% 0.2 mph S0.3 kmh S 2.0 mph3.2 kmh 29.96 in1014.6 mb 0.00 in0.0 mm 0.00 in0.0 mm 0.01 in0.3 mm
08:12 AM 59.9°F15.5°C 55.0°F12.8°C 84% Calm Calm 2.0 mph3.2 kmh 29.96 in1014.6 mb 0.00 in0.0 mm 0.00 in0.0 mm 0.01 in0.3 mm
08:17 AM 60.3°F15.7°C 55.0°F12.8°C 83% 0.4 mph SSE0.6 kmh SSE 2.0 mph3.2 kmh 29.97 in1014.9 mb 0.00 in0.0 mm 0.00 in0.0 mm 0.01 in0.3 mm
08:22 AM 60.3°F15.7°C 54.7°F12.6°C 82% 0.7 mph SE1.1 kmh SE 2.0 mph3.2 kmh 29.97 in1014.9 mb 0.00 in0.0 mm 0.00 in0.0 mm 0.01 in0.3 mm
08:27 AM 60.6°F15.9°C 54.7°F12.6°C 81% 0.7 mph SSW1.1 kmh SSW 2.0 mph3.2 kmh 29.97 in1014.9 mb 0.00 in0.0 mm 0.00 in0.0 mm 0.01 in0.3 mm
08:32 AM 60.8°F16.0°C 54.9°F12.7°C 81% 0.4 mph SSW0.6 kmh SSW 3.1 mph5.0 kmh 29.97 in1014.9 mb 0.00 in0.0 mm 0.00 in0.0 mm 0.01 in0.3 mm
08:37 AM 61.0°F16.1°C 54.5°F12.5°C 79% 1.6 mph SE2.6 kmh SE 4.3 mph6.9 kmh 29.97 in1014.9 mb 0.00 in0.0 mm 0.00 in0.0 mm 0.01 in0.3 mm
08:42 AM 61.2°F16.2°C 54.7°F12.6°C 79% 1.3 mph SE2.1 kmh SE 3.1 mph5.0 kmh 29.96 in1014.6 mb 0.00 in0.0 mm 0.00 in0.0 mm 0.01 in0.3 mm
08:47 AM 61.5°F16.4°C 54.7°F12.6°C 78% 1.3 mph SE2.1 kmh SE 5.4 mph8.7 kmh 29.97 in1014.9 mb 0.00 in0.0 mm 0.00 in0.0 mm 0.01 in0.3 mm
08:52 AM 61.5°F16.4°C 54.0°F12.2°C 76% 3.6 mph S5.8 kmh S 7.4 mph11.9 kmh 29.97 in1014.9 mb 0.00 in0.0 mm 0.00 in0.0 mm 0.01 in0.3 mm
08:57 AM 61.5°F16.4°C 54.0°F12.2°C 76% 0.7 mph NW1.1 kmh NW 6.3 mph10.1 kmh 29.97 in1014.9 mb 0.00 in0.0 mm 0.00 in0.0 mm 0.01 in0.3 mm
09:02 AM 61.7°F16.5°C 53.8°F12.1°C 75% 1.1 mph NE1.8 kmh NE 4.3 mph6.9 kmh 29.97 in1014.9 mb 0.00 in0.0 mm 0.00 in0.0 mm 0.01 in0.3 mm
09:07 AM 61.9°F16.6°C 54.3°F12.4°C 76% 1.8 mph ESE2.9 kmh ESE 6.3 mph10.1 kmh 29.97 in1014.9 mb 0.00 in0.0 mm 0.00 in0.0 mm 0.01 in0.3 mm
09:12 AM 61.9°F16.6°C 53.8°F12.1°C 75% 0.9 mph N1.4 kmh N 6.3 mph10.1 kmh 29.96 in1014.6 mb 0.00 in0.0 mm 0.00 in0.0 mm 0.01 in0.3 mm
09:17 AM 62.1°F16.7°C 53.2°F11.8°C 73% 3.8 mph SSE6.1 kmh SSE 9.6 mph15.4 kmh 29.96 in1014.6 mb 0.00 in0.0 mm 0.00 in0.0 mm 0.01 in0.3 mm
09:22 AM 62.2°F16.8°C 53.8°F12.1°C 74% 3.1 mph N5.0 kmh N 8.5 mph13.7 kmh 29.96 in1014.6 mb 0.00 in0.0 mm 0.00 in0.0 mm 0.01 in0.3 mm
09:27 AM 62.8°F17.1°C 54.3°F12.4°C 74% Calm Calm 3.1 mph5.0 kmh 29.96 in1014.6 mb 0.00 in0.0 mm 0.00 in0.0 mm 0.01 in0.3 mm
09:32 AM 63.3°F17.4°C 54.1°F12.3°C 72% 2.9 mph SW4.7 kmh SW 6.3 mph10.1 kmh 29.96 in1014.6 mb 0.00 in0.0 mm 0.00 in0.0 mm 0.01 in0.3 mm
09:37 AM 63.5°F17.5°C 53.6°F12.0°C 70% 3.8 mph SSE6.1 kmh SSE 8.5 mph13.7 kmh 29.96 in1014.6 mb 0.00 in0.0 mm 0.00 in0.0 mm 0.01 in0.3 mm
09:42 AM 63.9°F17.7°C 54.0°F12.2°C 70% 3.6 mph S5.8 kmh S 11.6 mph18.7 kmh 29.96 in1014.6 mb 0.00 in0.0 mm 0.00 in0.0 mm 0.01 in0.3 mm
09:47 AM 64.0°F17.8°C 54.1°F12.3°C 70% 0.9 mph SSE1.4 kmh SSE 8.5 mph13.7 kmh 29.96 in1014.6 mb 0.00 in0.0 mm 0.00 in0.0 mm 0.01 in0.3 mm
09:52 AM 64.0°F17.8°C 52.0°F11.1°C 65% 6.3 mph SE10.1 kmh SE 12.8 mph20.6 kmh 29.96 in1014.6 mb 0.00 in0.0 mm 0.00 in0.0 mm 0.01 in0.3 mm
09:57 AM 64.0°F17.8°C 52.9°F11.6°C 67% 3.1 mph SW5.0 kmh SW 8.5 mph13.7 kmh 29.96 in1014.6 mb 0.00 in0.0 mm 0.00 in0.0 mm 0.01 in0.3 mm
10:02 AM 64.2°F17.9°C 53.1°F11.7°C 67% 3.4 mph S5.5 kmh S 8.5 mph13.7 kmh 29.97 in1014.9 mb 0.00 in0.0 mm 0.00 in0.0 mm 0.01 in0.3 mm
10:07 AM 65.1°F18.4°C 53.4°F11.9°C 66% 3.8 mph SE6.1 kmh SE 8.5 mph13.7 kmh 29.97 in1014.9 mb 0.00 in0.0 mm 0.00 in0.0 mm 0.01 in0.3 mm
10:12 AM 65.7°F18.7°C 53.2°F11.8°C 64% 6.0 mph SW9.7 kmh SW 12.8 mph20.6 kmh 29.97 in1014.9 mb 0.00 in0.0 mm 0.00 in0.0 mm 0.01 in0.3 mm
10:17 AM 65.5°F18.6°C 53.1°F11.7°C 64% 3.8 mph S6.1 kmh S 9.6 mph15.4 kmh 29.96 in1014.6 mb 0.00 in0.0 mm 0.00 in0.0 mm 0.01 in0.3 mm
10:22 AM 65.5°F18.6°C 53.1°F11.7°C 64% 4.5 mph SW7.2 kmh SW 6.3 mph10.1 kmh 29.97 in1014.9 mb 0.00 in0.0 mm 0.00 in0.0 mm 0.01 in0.3 mm
10:27 AM 65.1°F18.4°C 52.7°F11.5°C 64% 3.8 mph SW6.1 kmh SW 7.4 mph11.9 kmh 29.96 in1014.6 mb 0.00 in0.0 mm 0.00 in0.0 mm 0.01 in0.3 mm
10:32 AM 64.8°F18.2°C 52.3°F11.3°C 64% 5.4 mph SSW8.7 kmh SSW 9.6 mph15.4 kmh 29.96 in1014.6 mb 0.00 in0.0 mm 0.00 in0.0 mm 0.01 in0.3 mm
10:37 AM 64.4°F18.0°C 52.3°F11.3°C 65% 3.8 mph SW6.1 kmh SW 8.5 mph13.7 kmh 29.96 in1014.6 mb 0.00 in0.0 mm 0.00 in0.0 mm 0.01 in0.3 mm
10:42 AM 64.6°F18.1°C 52.9°F11.6°C 66% 4.5 mph SSW7.2 kmh SSW 7.4 mph11.9 kmh 29.96 in1014.6 mb 0.00 in0.0 mm 0.00 in0.0 mm 0.01 in0.3 mm
10:47 AM 64.6°F18.1°C 52.9°F11.6°C 66% 4.3 mph SSE6.9 kmh SSE 7.4 mph11.9 kmh 29.96 in1014.6 mb 0.00 in0.0 mm 0.00 in0.0 mm 0.01 in0.3 mm
10:52 AM 64.8°F18.2°C 53.1°F11.7°C 66% 3.6 mph SW5.8 kmh SW 8.5 mph13.7 kmh 29.96 in1014.6 mb 0.00 in0.0 mm 0.00 in0.0 mm 0.01 in0.3 mm
10:57 AM 64.6°F18.1°C 52.9°F11.6°C 66% 7.2 mph SSW11.6 kmh SSW 11.6 mph18.7 kmh 29.96 in1014.6 mb 0.00 in0.0 mm 0.00 in0.0 mm 0.01 in0.3 mm
11:02 AM 64.6°F18.1°C 53.4°F11.9°C 67% 4.5 mph SSW7.2 kmh SSW 9.6 mph15.4 kmh 29.96 in1014.6 mb 0.00 in0.0 mm 0.00 in0.0 mm 0.01 in0.3 mm
11:07 AM 64.6°F18.1°C 53.4°F11.9°C 67% 7.4 mph SW11.9 kmh SW 11.6 mph18.7 kmh 29.97 in1014.9 mb 0.00 in0.0 mm 0.00 in0.0 mm 0.01 in0.3 mm
11:12 AM 64.2°F17.9°C 53.4°F11.9°C 68% 4.0 mph SW6.4 kmh SW 10.5 mph16.9 kmh 29.97 in1014.9 mb 0.00 in0.0 mm 0.00 in0.0 mm 0.01 in0.3 mm
11:17 AM 63.9°F17.7°C 53.1°F11.7°C 68% 6.3 mph SW10.1 kmh SW 10.5 mph16.9 kmh 29.97 in1014.9 mb 0.00 in0.0 mm 0.00 in0.0 mm 0.01 in0.3 mm
11:22 AM 63.7°F17.6°C 53.2°F11.8°C 69% 6.9 mph W11.1 kmh W 11.6 mph18.7 kmh 29.97 in1014.9 mb 0.00 in0.0 mm 0.00 in0.0 mm 0.01 in0.3 mm
11:27 AM 63.3°F17.4°C 53.8°F12.1°C 71% 5.6 mph SW9.0 kmh SW 9.6 mph15.4 kmh 29.97 in1014.9 mb 0.00 in0.0 mm 0.00 in0.0 mm 0.01 in0.3 mm
11:32 AM 63.3°F17.4°C 54.1°F12.3°C 72% 4.7 mph S7.6 kmh S 9.6 mph15.4 kmh 29.97 in1014.9 mb 0.00 in0.0 mm 0.00 in0.0 mm 0.01 in0.3 mm
11:37 AM 63.1°F17.3°C 54.0°F12.2°C 72% 5.6 mph NW9.0 kmh NW 11.6 mph18.7 kmh 29.97 in1014.9 mb 0.00 in0.0 mm 0.00 in0.0 mm 0.01 in0.3 mm
11:42 AM 63.0°F17.2°C 53.8°F12.1°C 72% 4.0 mph SW6.4 kmh SW 8.5 mph13.7 kmh 29.97 in1014.9 mb 0.00 in0.0 mm 0.00 in0.0 mm 0.01 in0.3 mm
11:47 AM 63.0°F17.2°C 54.1°F12.3°C 73% 3.1 mph SW5.0 kmh SW 7.4 mph11.9 kmh 29.97 in1014.9 mb 0.00 in0.0 mm 0.00 in0.0 mm 0.01 in0.3 mm
11:52 AM 63.0°F17.2°C 54.1°F12.3°C 73% 4.9 mph SSW7.9 kmh SSW 7.4 mph11.9 kmh 29.97 in1014.9 mb 0.00 in0.0 mm 0.00 in0.0 mm 0.01 in0.3 mm
11:57 AM 62.8°F17.1°C 54.0°F12.2°C 73% 4.9 mph SSW7.9 kmh SSW 9.6 mph15.4 kmh 29.96 in1014.6 mb 0.00 in0.0 mm 0.00 in0.0 mm 0.01 in0.3 mm
12:02 PM 62.4°F16.9°C 53.6°F12.0°C 73% 4.5 mph SW7.2 kmh SW 7.4 mph11.9 kmh 29.97 in1014.9 mb 0.00 in0.0 mm 0.00 in0.0 mm 0.01 in0.3 mm
12:07 PM 62.4°F16.9°C 54.0°F12.2°C 74% 3.6 mph SSW5.8 kmh SSW 7.4 mph11.9 kmh 29.96 in1014.6 mb 0.00 in0.0 mm 0.00 in0.0 mm 0.01 in0.3 mm
12:12 PM 62.4°F16.9°C 54.0°F12.2°C 74% 3.4 mph SW5.5 kmh SW 7.4 mph11.9 kmh 29.96 in1014.6 mb 0.00 in0.0 mm 0.00 in0.0 mm 0.01 in0.3 mm
12:17 PM 62.2°F16.8°C 53.8°F12.1°C 74% 3.8 mph SW6.1 kmh SW 8.5 mph13.7 kmh 29.96 in1014.6 mb 0.00 in0.0 mm 0.00 in0.0 mm 0.01 in0.3 mm
12:22 PM 62.2°F16.8°C 54.1°F12.3°C 75% 4.5 mph SSW7.2 kmh SSW 8.5 mph13.7 kmh 29.96 in1014.6 mb 0.00 in0.0 mm 0.00 in0.0 mm 0.01 in0.3 mm
12:27 PM 62.2°F16.8°C 54.5°F12.5°C 76% 3.4 mph SSW5.5 kmh SSW 8.5 mph13.7 kmh 29.96 in1014.6 mb 0.00 in0.0 mm 0.00 in0.0 mm 0.01 in0.3 mm
12:32 PM 62.1°F16.7°C 54.0°F12.2°C 75% 2.0 mph WSW3.2 kmh WSW 8.5 mph13.7 kmh 29.96 in1014.6 mb 0.00 in0.0 mm 0.00 in0.0 mm 0.01 in0.3 mm
12:37 PM 61.9°F16.6°C 54.7°F12.6°C 77% 2.7 mph SW4.3 kmh SW 5.4 mph8.7 kmh 29.96 in1014.6 mb 0.00 in0.0 mm 0.00 in0.0 mm 0.01 in0.3 mm
12:42 PM 61.3°F16.3°C 54.5°F12.5°C 78% 2.0 mph SW3.2 kmh SW 4.3 mph6.9 kmh 29.97 in1014.9 mb 0.00 in0.0 mm 0.00 in0.0 mm 0.01 in0.3 mm
12:47 PM 60.6°F15.9°C 54.1°F12.3°C 79% 4.0 mph WSW6.4 kmh WSW 6.3 mph10.1 kmh 29.96 in1014.6 mb 0.00 in0.0 mm 0.00 in0.0 mm 0.01 in0.3 mm
12:52 PM 60.3°F15.7°C 54.3°F12.4°C 81% 4.7 mph SW7.6 kmh SW 6.3 mph10.1 kmh 29.96 in1014.6 mb 0.00 in0.0 mm 0.00 in0.0 mm 0.01 in0.3 mm
12:57 PM 60.1°F15.6°C 54.5°F12.5°C 82% 3.4 mph S5.5 kmh S 6.3 mph10.1 kmh 29.96 in1014.6 mb 0.00 in0.0 mm 0.00 in0.0 mm 0.01 in0.3 mm
01:02 PM 59.9°F15.5°C 54.3°F12.4°C 82% 3.4 mph SW5.5 kmh SW 5.4 mph8.7 kmh 29.96 in1014.6 mb 0.00 in0.0 mm 0.00 in0.0 mm 0.01 in0.3 mm
01:07 PM 59.9°F15.5°C 54.7°F12.6°C 83% 2.7 mph SSE4.3 kmh SSE 6.3 mph10.1 kmh 29.96 in1014.6 mb 0.00 in0.0 mm 0.00 in0.0 mm 0.01 in0.3 mm
01:12 PM 60.1°F15.6°C 54.9°F12.7°C 83% 3.1 mph SSE5.0 kmh SSE 5.4 mph8.7 kmh 29.95 in1014.2 mb 0.00 in0.0 mm 0.00 in0.0 mm 0.01 in0.3 mm
01:17 PM 60.3°F15.7°C 55.0°F12.8°C 83% 4.0 mph SW6.4 kmh SW 5.4 mph8.7 kmh 29.95 in1014.2 mb 0.00 in0.0 mm 0.00 in0.0 mm 0.01 in0.3 mm
01:22 PM 60.3°F15.7°C 55.0°F12.8°C 83% 2.2 mph SSW3.5 kmh SSW 6.3 mph10.1 kmh 29.94 in1013.9 mb 0.00 in0.0 mm 0.00 in0.0 mm 0.01 in0.3 mm
01:27 PM 60.3°F15.7°C 55.0°F12.8°C 83% 4.0 mph SSE6.4 kmh SSE 9.6 mph15.4 kmh 29.95 in1014.2 mb 0.00 in0.0 mm 0.00 in0.0 mm 0.01 in0.3 mm
01:32 PM 60.1°F15.6°C 55.2°F12.9°C 84% 1.6 mph SE2.6 kmh SE 4.3 mph6.9 kmh 29.94 in1013.9 mb 0.00 in0.0 mm 0.00 in0.0 mm 0.01 in0.3 mm
01:37 PM 60.1°F15.6°C 55.6°F13.1°C 85% 3.1 mph SW5.0 kmh SW 5.4 mph8.7 kmh 29.94 in1013.9 mb 0.00 in0.0 mm 0.00 in0.0 mm 0.01 in0.3 mm
01:42 PM 59.7°F15.4°C 55.6°F13.1°C 86% 2.0 mph SSW3.2 kmh SSW 5.4 mph8.7 kmh 29.94 in1013.9 mb 0.00 in0.0 mm 0.00 in0.0 mm 0.01 in0.3 mm
01:47 PM 59.7°F15.4°C 55.8°F13.2°C 87% 2.2 mph WSW3.5 kmh WSW 4.3 mph6.9 kmh 29.94 in1013.9 mb 0.00 in0.0 mm 0.00 in0.0 mm 0.01 in0.3 mm
01:52 PM 59.7°F15.4°C 55.8°F13.2°C 87% 3.1 mph SW5.0 kmh SW 5.4 mph8.7 kmh 29.94 in1013.9 mb 0.00 in0.0 mm 0.00 in0.0 mm 0.01 in0.3 mm
01:57 PM 59.5°F15.3°C 55.9°F13.3°C 88% 4.0 mph SSW6.4 kmh SSW 5.4 mph8.7 kmh 29.93 in1013.5 mb 0.00 in0.0 mm 0.00 in0.0 mm 0.01 in0.3 mm
02:02 PM 59.4°F15.2°C 55.8°F13.2°C 88% 2.7 mph WSW4.3 kmh WSW 4.3 mph6.9 kmh 29.94 in1013.9 mb 0.00 in0.0 mm 0.00 in0.0 mm 0.01 in0.3 mm
02:07 PM 59.4°F15.2°C 56.1°F13.4°C 89% 1.6 mph SW2.6 kmh SW 4.3 mph6.9 kmh 29.93 in1013.5 mb 0.01 in0.3 mm 0.12 in3.0 mm 0.02 in0.5 mm
02:12 PM 59.5°F15.3°C 56.8°F13.8°C 91% 0.7 mph SW1.1 kmh SW 2.0 mph3.2 kmh 29.93 in1013.5 mb 0.01 in0.3 mm 0.00 in0.0 mm 0.02 in0.5 mm
02:17 PM 59.9°F15.5°C 57.2°F14.0°C 91% 1.1 mph SSE1.8 kmh SSE 3.1 mph5.0 kmh 29.93 in1013.5 mb 0.01 in0.3 mm 0.00 in0.0 mm 0.03 in0.8 mm
02:22 PM 60.1°F15.6°C 57.4°F14.1°C 91% 1.8 mph SW2.9 kmh SW 4.3 mph6.9 kmh 29.93 in1013.5 mb 0.02 in0.5 mm 0.12 in3.0 mm 0.03 in0.8 mm
02:27 PM 60.1°F15.6°C 57.4°F14.1°C 91% 1.3 mph SE2.1 kmh SE 4.3 mph6.9 kmh 29.92 in1013.2 mb 0.02 in0.5 mm 0.00 in0.0 mm 0.03 in0.8 mm
02:32 PM 59.7°F15.4°C 56.8°F13.8°C 90% 2.2 mph W3.5 kmh W 4.3 mph6.9 kmh 29.92 in1013.2 mb 0.02 in0.5 mm 0.00 in0.0 mm 0.03 in0.8 mm
02:37 PM 59.7°F15.4°C 56.8°F13.8°C 90% 1.1 mph SW1.8 kmh SW 2.0 mph3.2 kmh 29.92 in1013.2 mb 0.02 in0.5 mm 0.00 in0.0 mm 0.03 in0.8 mm
02:42 PM 59.7°F15.4°C 57.0°F13.9°C 91% Calm Calm 2.0 mph3.2 kmh 29.92 in1013.2 mb 0.02 in0.5 mm 0.00 in0.0 mm 0.03 in0.8 mm
02:47 PM 60.1°F15.6°C 57.4°F14.1°C 91% 0.7 mph SSW1.1 kmh SSW 2.0 mph3.2 kmh 29.92 in1013.2 mb 0.02 in0.5 mm 0.00 in0.0 mm 0.03 in0.8 mm
02:52 PM 60.1°F15.6°C 57.2°F14.0°C 90% 1.1 mph SW1.8 kmh SW 4.3 mph6.9 kmh 29.92 in1013.2 mb 0.02 in0.5 mm 0.00 in0.0 mm 0.03 in0.8 mm
02:57 PM 60.3°F15.7°C 57.4°F14.1°C 90% 1.6 mph SSW2.6 kmh SSW 5.4 mph8.7 kmh 29.92 in1013.2 mb 0.02 in0.5 mm 0.00 in0.0 mm 0.03 in0.8 mm
03:02 PM 60.3°F15.7°C 56.7°F13.7°C 88% 2.7 mph SW4.3 kmh SW 5.4 mph8.7 kmh 29.92 in1013.2 mb 0.02 in0.5 mm 0.00 in0.0 mm 0.03 in0.8 mm
03:07 PM 60.4°F15.8°C 56.8°F13.8°C 88% 2.0 mph SW3.2 kmh SW 3.1 mph5.0 kmh 29.92 in1013.2 mb 0.01 in0.3 mm 0.00 in0.0 mm 0.03 in0.8 mm
03:12 PM 60.6°F15.9°C 56.7°F13.7°C 87% 1.8 mph SW2.9 kmh SW 3.1 mph5.0 kmh 29.92 in1013.2 mb 0.01 in0.3 mm 0.00 in0.0 mm 0.03 in0.8 mm
03:17 PM 60.8°F16.0°C 56.7°F13.7°C 86% 2.0 mph SSW3.2 kmh SSW 4.3 mph6.9 kmh 29.93 in1013.5 mb 0.01 in0.3 mm 0.00 in0.0 mm 0.03 in0.8 mm
03:22 PM 61.0°F16.1°C 56.8°F13.8°C 86% Calm Calm 3.1 mph5.0 kmh 29.93 in1013.5 mb 0.00 in0.0 mm 0.00 in0.0 mm 0.03 in0.8 mm
03:27 PM 61.0°F16.1°C 56.5°F13.6°C 85% 2.0 mph S3.2 kmh S 5.4 mph8.7 kmh 29.93 in1013.5 mb 0.00 in0.0 mm 0.00 in0.0 mm 0.03 in0.8 mm
03:32 PM 61.2°F16.2°C 56.7°F13.7°C 85% 1.3 mph SW2.1 kmh SW 3.1 mph5.0 kmh 29.93 in1013.5 mb 0.00 in0.0 mm 0.00 in0.0 mm 0.03 in0.8 mm
03:37 PM 61.2°F16.2°C 56.7°F13.7°C 85% Calm Calm 3.1 mph5.0 kmh 29.93 in1013.5 mb 0.00 in0.0 mm 0.00 in0.0 mm 0.03 in0.8 mm
03:42 PM 61.2°F16.2°C 56.3°F13.5°C 84% 3.4 mph W5.5 kmh W 7.4 mph11.9 kmh 29.93 in1013.5 mb 0.00 in0.0 mm 0.00 in0.0 mm 0.03 in0.8 mm
03:47 PM 61.0°F16.1°C 55.8°F13.2°C 83% 5.8 mph SW9.3 kmh SW 9.6 mph15.4 kmh 29.94 in1013.9 mb 0.00 in0.0 mm 0.00 in0.0 mm 0.03 in0.8 mm
03:52 PM 60.6°F15.9°C 55.4°F13.0°C 83% 3.1 mph WSW5.0 kmh WSW 10.5 mph16.9 kmh 29.94 in1013.9 mb 0.00 in0.0 mm 0.00 in0.0 mm 0.03 in0.8 mm
03:57 PM 60.4°F15.8°C 55.6°F13.1°C 84% 2.2 mph SSW3.5 kmh SSW 6.3 mph10.1 kmh 29.94 in1013.9 mb 0.00 in0.0 mm 0.00 in0.0 mm 0.03 in0.8 mm
04:02 PM 60.1°F15.6°C 55.6°F13.1°C 85% 5.4 mph SW8.7 kmh SW 8.5 mph13.7 kmh 29.94 in1013.9 mb 0.00 in0.0 mm 0.00 in0.0 mm 0.03 in0.8 mm
04:07 PM 59.5°F15.3°C 55.6°F13.1°C 87% 3.1 mph WSW5.0 kmh WSW 8.5 mph13.7 kmh 29.94 in1013.9 mb 0.00 in0.0 mm 0.00 in0.0 mm 0.03 in0.8 mm
04:12 PM 59.2°F15.1°C 55.6°F13.1°C 88% 2.5 mph WSW4.0 kmh WSW 6.3 mph10.1 kmh 29.95 in1014.2 mb 0.00 in0.0 mm 0.00 in0.0 mm 0.03 in0.8 mm
04:17 PM 58.8°F14.9°C 55.6°F13.1°C 89% 5.1 mph S8.2 kmh S 10.5 mph16.9 kmh 29.94 in1013.9 mb 0.00 in0.0 mm 0.00 in0.0 mm 0.03 in0.8 mm
04:22 PM 58.5°F14.7°C 55.6°F13.1°C 90% 5.4 mph SW8.7 kmh SW 9.6 mph15.4 kmh 29.94 in1013.9 mb 0.00 in0.0 mm 0.00 in0.0 mm 0.03 in0.8 mm
04:27 PM 57.9°F14.4°C 55.0°F12.8°C 90% 4.7 mph SSW7.6 kmh SSW 9.6 mph15.4 kmh 29.94 in1013.9 mb 0.00 in0.0 mm 0.00 in0.0 mm 0.03 in0.8 mm
04:32 PM 57.9°F14.4°C 55.2°F12.9°C 91% 4.5 mph SW7.2 kmh SW 8.5 mph13.7 kmh 29.94 in1013.9 mb 0.00 in0.0 mm 0.00 in0.0 mm 0.03 in0.8 mm
04:37 PM 57.7°F14.3°C 55.4°F13.0°C 92% 3.8 mph S6.1 kmh S 7.4 mph11.9 kmh 29.94 in1013.9 mb 0.00 in0.0 mm 0.00 in0.0 mm 0.03 in0.8 mm
04:42 PM 57.6°F14.2°C 55.2°F12.9°C 92% 3.8 mph SW6.1 kmh SW 6.3 mph10.1 kmh 29.94 in1013.9 mb 0.00 in0.0 mm 0.00 in0.0 mm 0.03 in0.8 mm
04:47 PM 57.6°F14.2°C 55.6°F13.1°C 93% 3.6 mph SW5.8 kmh SW 6.3 mph10.1 kmh 29.95 in1014.2 mb 0.00 in0.0 mm 0.00 in0.0 mm 0.03 in0.8 mm
04:52 PM 57.6°F14.2°C 55.6°F13.1°C 93% 2.5 mph SW4.0 kmh SW 7.4 mph11.9 kmh 29.94 in1013.9 mb 0.00 in0.0 mm 0.00 in0.0 mm 0.03 in0.8 mm
04:57 PM 57.6°F14.2°C 55.6°F13.1°C 93% 3.8 mph SSW6.1 kmh SSW 6.3 mph10.1 kmh 29.95 in1014.2 mb 0.00 in0.0 mm 0.00 in0.0 mm 0.03 in0.8 mm
05:02 PM 57.6°F14.2°C 55.8°F13.2°C 94% 1.6 mph SW2.6 kmh SW 6.3 mph10.1 kmh 29.95 in1014.2 mb 0.00 in0.0 mm 0.00 in0.0 mm 0.03 in0.8 mm
05:07 PM 57.4°F14.1°C 55.4°F13.0°C 93% 3.6 mph S5.8 kmh S 6.3 mph10.1 kmh 29.95 in1014.2 mb 0.00 in0.0 mm 0.00 in0.0 mm 0.03 in0.8 mm
05:12 PM 57.4°F14.1°C 55.6°F13.1°C 94% 3.4 mph S5.5 kmh S 8.5 mph13.7 kmh 29.94 in1013.9 mb 0.00 in0.0 mm 0.00 in0.0 mm 0.03 in0.8 mm
05:17 PM 57.4°F14.1°C 55.6°F13.1°C 94% 2.7 mph SW4.3 kmh SW 4.3 mph6.9 kmh 29.95 in1014.2 mb 0.00 in0.0 mm 0.00 in0.0 mm 0.03 in0.8 mm
05:22 PM 57.2°F14.0°C 55.4°F13.0°C 94% 1.6 mph S2.6 kmh S 4.3 mph6.9 kmh 29.94 in1013.9 mb 0.00 in0.0 mm 0.00 in0.0 mm 0.03 in0.8 mm
05:27 PM 57.2°F14.0°C 55.4°F13.0°C 94% 1.8 mph SW2.9 kmh SW 5.4 mph8.7 kmh 29.94 in1013.9 mb 0.00 in0.0 mm 0.00 in0.0 mm 0.03 in0.8 mm
05:32 PM 57.2°F14.0°C 55.4°F13.0°C 94% 0.7 mph SE1.1 kmh SE 2.0 mph3.2 kmh 29.94 in1013.9 mb 0.00 in0.0 mm 0.00 in0.0 mm 0.03 in0.8 mm
05:37 PM 57.2°F14.0°C 55.4°F13.0°C 94% 1.1 mph S1.8 kmh S 2.0 mph3.2 kmh 29.94 in1013.9 mb 0.00 in0.0 mm 0.00 in0.0 mm 0.03 in0.8 mm
05:42 PM 57.0°F13.9°C 55.6°F13.1°C 95% Calm Calm 1.1 mph1.8 kmh 29.94 in1013.9 mb 0.00 in0.0 mm 0.00 in0.0 mm 0.03 in0.8 mm
05:47 PM 57.0°F13.9°C 55.6°F13.1°C 95% Calm Calm 2.0 mph3.2 kmh 29.95 in1014.2 mb 0.00 in0.0 mm 0.00 in0.0 mm 0.03 in0.8 mm
05:52 PM 57.0°F13.9°C 55.6°F13.1°C 95% 0.2 mph SE0.3 kmh SE 1.1 mph1.8 kmh 29.95 in1014.2 mb 0.00 in0.0 mm 0.00 in0.0 mm 0.03 in0.8 mm
05:57 PM 57.2°F14.0°C 55.8°F13.2°C 95% 1.1 mph SW1.8 kmh SW 2.0 mph3.2 kmh 29.95 in1014.2 mb 0.00 in0.0 mm 0.00 in0.0 mm 0.03 in0.8 mm
06:02 PM 57.2°F14.0°C 55.8°F13.2°C 95% 1.6 mph SSW2.6 kmh SSW 3.1 mph5.0 kmh 29.95 in1014.2 mb 0.00 in0.0 mm 0.00 in0.0 mm 0.03 in0.8 mm
06:07 PM 57.2°F14.0°C 55.8°F13.2°C 95% 0.9 mph SSW1.4 kmh SSW 4.3 mph6.9 kmh 29.95 in1014.2 mb 0.00 in0.0 mm 0.00 in0.0 mm 0.03 in0.8 mm
06:12 PM 57.2°F14.0°C 55.8°F13.2°C 95% 0.4 mph SE0.6 kmh SE 1.1 mph1.8 kmh 29.95 in1014.2 mb 0.00 in0.0 mm 0.00 in0.0 mm 0.03 in0.8 mm
06:17 PM 57.2°F14.0°C 55.8°F13.2°C 95% 1.1 mph S1.8 kmh S 2.0 mph3.2 kmh 29.95 in1014.2 mb 0.00 in0.0 mm 0.00 in0.0 mm 0.03 in0.8 mm
06:22 PM 57.2°F14.0°C 55.8°F13.2°C 95% 0.2 mph S0.3 kmh S 2.0 mph3.2 kmh 29.95 in1014.2 mb 0.00 in0.0 mm 0.00 in0.0 mm 0.03 in0.8 mm
06:27 PM 57.0°F13.9°C 55.6°F13.1°C 95% 2.2 mph SE3.5 kmh SE 3.1 mph5.0 kmh 29.95 in1014.2 mb 0.00 in0.0 mm 0.00 in0.0 mm 0.03 in0.8 mm
06:32 PM 57.0°F13.9°C 55.6°F13.1°C 95% 1.8 mph SSE2.9 kmh SSE 4.3 mph6.9 kmh 29.96 in1014.6 mb 0.00 in0.0 mm 0.00 in0.0 mm 0.03 in0.8 mm
06:37 PM 57.0°F13.9°C 55.6°F13.1°C 95% 1.3 mph SSE2.1 kmh SSE 4.3 mph6.9 kmh 29.95 in1014.2 mb 0.00 in0.0 mm 0.00 in0.0 mm 0.03 in0.8 mm
06:42 PM 57.2°F14.0°C 55.8°F13.2°C 95% 1.1 mph SE1.8 kmh SE 2.0 mph3.2 kmh 29.95 in1014.2 mb 0.01 in0.3 mm 0.12 in3.0 mm 0.04 in1.0 mm
06:47 PM 57.2°F14.0°C 55.8°F13.2°C 95% 1.6 mph SE2.6 kmh SE 3.1 mph5.0 kmh 29.96 in1014.6 mb 0.01 in0.3 mm 0.00 in0.0 mm 0.04 in1.0 mm
06:52 PM 57.2°F14.0°C 55.8°F13.2°C 95% 1.1 mph SE1.8 kmh SE 3.1 mph5.0 kmh 29.96 in1014.6 mb 0.01 in0.3 mm 0.00 in0.0 mm 0.04 in1.0 mm
06:57 PM 57.2°F14.0°C 55.8°F13.2°C 95% 2.2 mph S3.5 kmh S 4.3 mph6.9 kmh 29.96 in1014.6 mb 0.01 in0.3 mm 0.00 in0.0 mm 0.04 in1.0 mm
07:02 PM 57.4°F14.1°C 55.9°F13.3°C 95% 2.0 mph S3.2 kmh S 5.4 mph8.7 kmh 29.96 in1014.6 mb 0.01 in0.3 mm 0.00 in0.0 mm 0.04 in1.0 mm
07:07 PM 57.4°F14.1°C 55.9°F13.3°C 95% 2.2 mph SE3.5 kmh SE 4.3 mph6.9 kmh 29.96 in1014.6 mb 0.01 in0.3 mm 0.00 in0.0 mm 0.04 in1.0 mm
07:12 PM 57.4°F14.1°C 55.9°F13.3°C 95% 1.1 mph SE1.8 kmh SE 4.3 mph6.9 kmh 29.96 in1014.6 mb 0.01 in0.3 mm 0.00 in0.0 mm 0.04 in1.0 mm
07:17 PM 57.4°F14.1°C 55.9°F13.3°C 95% 0.7 mph SSE1.1 kmh SSE 3.1 mph5.0 kmh 29.96 in1014.6 mb 0.01 in0.3 mm 0.00 in0.0 mm 0.04 in1.0 mm
07:22 PM 57.6°F14.2°C 56.1°F13.4°C 95% 0.4 mph SE0.6 kmh SE 3.1 mph5.0 kmh 29.96 in1014.6 mb 0.01 in0.3 mm 0.00 in0.0 mm 0.04 in1.0 mm
07:27 PM 57.6°F14.2°C 56.1°F13.4°C 95% 0.9 mph SE1.4 kmh SE 3.1 mph5.0 kmh 29.95 in1014.2 mb 0.01 in0.3 mm 0.00 in0.0 mm 0.04 in1.0 mm
07:32 PM 57.6°F14.2°C 56.1°F13.4°C 95% 0.4 mph SE0.6 kmh SE 4.3 mph6.9 kmh 29.95 in1014.2 mb 0.01 in0.3 mm 0.00 in0.0 mm 0.04 in1.0 mm
07:37 PM 57.6°F14.2°C 56.5°F13.6°C 96% 0.4 mph SE0.6 kmh SE 2.0 mph3.2 kmh 29.95 in1014.2 mb 0.01 in0.3 mm 0.00 in0.0 mm 0.04 in1.0 mm
07:42 PM 57.6°F14.2°C 56.5°F13.6°C 96% Calm Calm 3.1 mph5.0 kmh 29.96 in1014.6 mb 0.00 in0.0 mm 0.00 in0.0 mm 0.04 in1.0 mm
07:47 PM 57.6°F14.2°C 56.1°F13.4°C 95% 0.7 mph SE1.1 kmh SE 2.0 mph3.2 kmh 29.96 in1014.6 mb 0.00 in0.0 mm 0.00 in0.0 mm 0.04 in1.0 mm
07:52 PM 57.6°F14.2°C 56.5°F13.6°C 96% 0.2 mph SE0.3 kmh SE 2.0 mph3.2 kmh 29.96 in1014.6 mb 0.00 in0.0 mm 0.00 in0.0 mm 0.04 in1.0 mm
07:57 PM 57.7°F14.3°C 56.7°F13.7°C 96% Calm Calm 1.1 mph1.8 kmh 29.96 in1014.6 mb 0.00 in0.0 mm 0.00 in0.0 mm 0.04 in1.0 mm
08:02 PM 57.7°F14.3°C 56.7°F13.7°C 96% 0.2 mph SE0.3 kmh SE 2.0 mph3.2 kmh 29.96 in1014.6 mb 0.01 in0.3 mm 0.01 in0.3 mm 0.05 in1.3 mm
08:07 PM 57.7°F14.3°C 56.7°F13.7°C 96% 0.4 mph SE0.6 kmh SE 2.0 mph3.2 kmh 29.96 in1014.6 mb 0.01 in0.3 mm 0.00 in0.0 mm 0.05 in1.3 mm
08:12 PM 57.7°F14.3°C 56.7°F13.7°C 96% 0.4 mph SE0.6 kmh SE 3.1 mph5.0 kmh 29.96 in1014.6 mb 0.01 in0.3 mm 0.00 in0.0 mm 0.05 in1.3 mm
08:17 PM 57.7°F14.3°C 56.7°F13.7°C 96% 0.2 mph SSE0.3 kmh SSE 3.1 mph5.0 kmh 29.96 in1014.6 mb 0.01 in0.3 mm 0.00 in0.0 mm 0.05 in1.3 mm
08:22 PM 57.7°F14.3°C 56.7°F13.7°C 96% 0.7 mph SSE1.1 kmh SSE 3.1 mph5.0 kmh 29.96 in1014.6 mb 0.02 in0.5 mm 0.12 in3.0 mm 0.06 in1.5 mm
08:27 PM 57.6°F14.2°C 56.5°F13.6°C 96% 0.7 mph S1.1 kmh S 4.3 mph6.9 kmh 29.96 in1014.6 mb 0.02 in0.5 mm 0.00 in0.0 mm 0.06 in1.5 mm
08:32 PM 57.7°F14.3°C 56.7°F13.7°C 96% Calm Calm 2.0 mph3.2 kmh 29.97 in1014.9 mb 0.02 in0.5 mm 0.00 in0.0 mm 0.06 in1.5 mm
08:37 PM 57.7°F14.3°C 56.7°F13.7°C 96% Calm Calm 2.0 mph3.2 kmh 29.97 in1014.9 mb 0.03 in0.8 mm 0.12 in3.0 mm 0.07 in1.8 mm
08:42 PM 57.7°F14.3°C 56.7°F13.7°C 96% 0.4 mph SW0.6 kmh SW 2.0 mph3.2 kmh 29.97 in1014.9 mb 0.03 in0.8 mm 0.00 in0.0 mm 0.07 in1.8 mm
08:47 PM 57.7°F14.3°C 56.7°F13.7°C 96% 0.2 mph SW0.3 kmh SW 2.0 mph3.2 kmh 29.98 in1015.2 mb 0.03 in0.8 mm 0.00 in0.0 mm 0.07 in1.8 mm
08:52 PM 57.9°F14.4°C 56.8°F13.8°C 96% 1.6 mph S2.6 kmh S 3.1 mph5.0 kmh 29.98 in1015.2 mb 0.04 in1.0 mm 0.12 in3.0 mm 0.08 in2.0 mm
08:57 PM 57.9°F14.4°C 56.8°F13.8°C 96% 1.8 mph SSW2.9 kmh SSW 3.1 mph5.0 kmh 29.98 in1015.2 mb 0.04 in1.0 mm 0.00 in0.0 mm 0.08 in2.0 mm
09:02 PM 57.9°F14.4°C 56.8°F13.8°C 96% 2.9 mph SW4.7 kmh SW 5.4 mph8.7 kmh 29.98 in1015.2 mb 0.03 in0.8 mm 0.00 in0.0 mm 0.08 in2.0 mm
09:07 PM 58.3°F14.6°C 57.2°F14.0°C 96% 2.0 mph SW3.2 kmh SW 4.3 mph6.9 kmh 29.98 in1015.2 mb 0.03 in0.8 mm 0.00 in0.0 mm 0.08 in2.0 mm
09:12 PM 58.3°F14.6°C 57.2°F14.0°C 96% 0.9 mph SSE1.4 kmh SSE 4.3 mph6.9 kmh 29.99 in1015.6 mb 0.03 in0.8 mm 0.00 in0.0 mm 0.08 in2.0 mm
09:17 PM 58.3°F14.6°C 57.2°F14.0°C 96% 3.1 mph SW5.0 kmh SW 6.3 mph10.1 kmh 29.99 in1015.6 mb 0.03 in0.8 mm 0.00 in0.0 mm 0.09 in2.3 mm
09:22 PM 58.3°F14.6°C 57.2°F14.0°C 96% 4.3 mph SW6.9 kmh SW 7.4 mph11.9 kmh 29.99 in1015.6 mb 0.03 in0.8 mm 0.00 in0.0 mm 0.09 in2.3 mm
09:27 PM 58.3°F14.6°C 57.2°F14.0°C 96% 2.7 mph SSW4.3 kmh SSW 7.4 mph11.9 kmh 29.99 in1015.6 mb 0.03 in0.8 mm 0.00 in0.0 mm 0.09 in2.3 mm
09:32 PM 58.3°F14.6°C 57.2°F14.0°C 96% 4.0 mph SW6.4 kmh SW 9.6 mph15.4 kmh 29.99 in1015.6 mb 0.03 in0.8 mm 0.00 in0.0 mm 0.09 in2.3 mm
09:37 PM 58.3°F14.6°C 57.2°F14.0°C 96% 4.3 mph SW6.9 kmh SW 7.4 mph11.9 kmh 29.99 in1015.6 mb 0.02 in0.5 mm 0.00 in0.0 mm 0.09 in2.3 mm
09:42 PM 58.3°F14.6°C 57.2°F14.0°C 96% 2.9 mph W4.7 kmh W 9.6 mph15.4 kmh 29.99 in1015.6 mb 0.02 in0.5 mm 0.00 in0.0 mm 0.09 in2.3 mm
09:47 PM 58.1°F14.5°C 57.0°F13.9°C 96% 1.1 mph S1.8 kmh S 7.4 mph11.9 kmh 29.99 in1015.6 mb 0.02 in0.5 mm 0.00 in0.0 mm 0.09 in2.3 mm
09:52 PM 58.3°F14.6°C 57.2°F14.0°C 96% 1.8 mph SW2.9 kmh SW 4.3 mph6.9 kmh 29.99 in1015.6 mb 0.01 in0.3 mm 0.00 in0.0 mm 0.09 in2.3 mm
09:57 PM 58.1°F14.5°C 57.0°F13.9°C 96% 3.4 mph SSW5.5 kmh SSW 6.3 mph10.1 kmh 29.99 in1015.6 mb 0.01 in0.3 mm 0.00 in0.0 mm 0.09 in2.3 mm
10:02 PM 58.1°F14.5°C 57.0°F13.9°C 96% 1.8 mph WSW2.9 kmh WSW 5.4 mph8.7 kmh 29.99 in1015.6 mb 0.01 in0.3 mm 0.00 in0.0 mm 0.09 in2.3 mm
10:07 PM 57.9°F14.4°C 56.8°F13.8°C 96% 2.7 mph SW4.3 kmh SW 5.4 mph8.7 kmh 29.99 in1015.6 mb 0.01 in0.3 mm 0.00 in0.0 mm 0.09 in2.3 mm
10:12 PM 57.9°F14.4°C 56.8°F13.8°C 96% 1.6 mph SE2.6 kmh SE 4.3 mph6.9 kmh 29.99 in1015.6 mb 0.01 in0.3 mm 0.00 in0.0 mm 0.09 in2.3 mm
10:17 PM 57.9°F14.4°C 56.8°F13.8°C 96% 0.4 mph SSE0.6 kmh SSE 3.1 mph5.0 kmh 29.99 in1015.6 mb 0.01 in0.3 mm 0.00 in0.0 mm 0.09 in2.3 mm
10:22 PM 57.9°F14.4°C 56.8°F13.8°C 96% 2.7 mph SSW4.3 kmh SSW 5.4 mph8.7 kmh 29.99 in1015.6 mb 0.00 in0.0 mm 0.00 in0.0 mm 0.09 in2.3 mm
10:27 PM 57.9°F14.4°C 56.8°F13.8°C 96% 1.8 mph SSW2.9 kmh SSW 4.3 mph6.9 kmh 29.99 in1015.6 mb 0.00 in0.0 mm 0.00 in0.0 mm 0.09 in2.3 mm
10:32 PM 57.9°F14.4°C 56.8°F13.8°C 96% 1.1 mph SSW1.8 kmh SSW 4.3 mph6.9 kmh 29.99 in1015.6 mb 0.00 in0.0 mm 0.00 in0.0 mm 0.09 in2.3 mm
10:37 PM 57.9°F14.4°C 56.8°F13.8°C 96% 1.3 mph SSW2.1 kmh SSW 4.3 mph6.9 kmh 29.99 in1015.6 mb 0.00 in0.0 mm 0.00 in0.0 mm 0.09 in2.3 mm
10:42 PM 57.9°F14.4°C 56.8°F13.8°C 96% 1.6 mph WSW2.6 kmh WSW 4.3 mph6.9 kmh 29.99 in1015.6 mb 0.00 in0.0 mm 0.00 in0.0 mm 0.09 in2.3 mm
10:47 PM 57.9°F14.4°C 56.8°F13.8°C 96% 1.8 mph S2.9 kmh S 4.3 mph6.9 kmh 29.99 in1015.6 mb 0.00 in0.0 mm 0.00 in0.0 mm 0.09 in2.3 mm
10:52 PM 57.9°F14.4°C 56.8°F13.8°C 96% 1.1 mph WSW1.8 kmh WSW 4.3 mph6.9 kmh 29.99 in1015.6 mb 0.00 in0.0 mm 0.00 in0.0 mm 0.09 in2.3 mm
10:57 PM 57.9°F14.4°C 56.8°F13.8°C 96% Calm Calm 2.0 mph3.2 kmh 29.98 in1015.2 mb 0.00 in0.0 mm 0.00 in0.0 mm 0.09 in2.3 mm
11:02 PM 57.7°F14.3°C 56.7°F13.7°C 96% 0.9 mph SW1.4 kmh SW 4.3 mph6.9 kmh 29.99 in1015.6 mb 0.00 in0.0 mm 0.00 in0.0 mm 0.09 in2.3 mm
11:07 PM 57.7°F14.3°C 56.7°F13.7°C 96% 1.8 mph SW2.9 kmh SW 3.1 mph5.0 kmh 29.99 in1015.6 mb 0.00 in0.0 mm 0.00 in0.0 mm 0.09 in2.3 mm
11:12 PM 57.7°F14.3°C 56.7°F13.7°C 96% 0.4 mph SW0.6 kmh SW 3.1 mph5.0 kmh 29.99 in1015.6 mb 0.00 in0.0 mm 0.00 in0.0 mm 0.09 in2.3 mm
11:17 PM 57.7°F14.3°C 56.7°F13.7°C 96% 1.8 mph SW2.9 kmh SW 5.4 mph8.7 kmh 29.98 in1015.2 mb 0.00 in0.0 mm 0.00 in0.0 mm 0.09 in2.3 mm
11:22 PM 57.7°F14.3°C 56.7°F13.7°C 96% 2.0 mph SW3.2 kmh SW 4.3 mph6.9 kmh 29.99 in1015.6 mb 0.00 in0.0 mm 0.00 in0.0 mm 0.09 in2.3 mm
11:27 PM 57.7°F14.3°C 56.8°F13.8°C 97% 0.9 mph SW1.4 kmh SW 3.1 mph5.0 kmh 29.99 in1015.6 mb 0.00 in0.0 mm 0.00 in0.0 mm 0.09 in2.3 mm
11:32 PM 57.7°F14.3°C 56.8°F13.8°C 97% 1.3 mph SSW2.1 kmh SSW 4.3 mph6.9 kmh 29.98 in1015.2 mb 0.00 in0.0 mm 0.00 in0.0 mm 0.09 in2.3 mm
11:37 PM 57.7°F14.3°C 56.8°F13.8°C 97% 0.4 mph WSW0.6 kmh WSW 5.4 mph8.7 kmh 29.98 in1015.2 mb 0.00 in0.0 mm 0.00 in0.0 mm 0.09 in2.3 mm
11:42 PM 57.6°F14.2°C 56.7°F13.7°C 97% 0.9 mph W1.4 kmh W 4.3 mph6.9 kmh 29.98 in1015.2 mb 0.00 in0.0 mm 0.00 in0.0 mm 0.09 in2.3 mm
11:47 PM 57.6°F14.2°C 56.5°F13.6°C 96% 0.7 mph SW1.1 kmh SW 3.1 mph5.0 kmh 29.98 in1015.2 mb 0.00 in0.0 mm 0.00 in0.0 mm 0.09 in2.3 mm
11:52 PM 57.6°F14.2°C 56.5°F13.6°C 96% 0.7 mph SW1.1 kmh SW 4.3 mph6.9 kmh 29.98 in1015.2 mb 0.00 in0.0 mm 0.00 in0.0 mm 0.09 in2.3 mm
11:57 PM 57.4°F14.1°C 56.3°F13.5°C 96% 0.4 mph WSW0.6 kmh WSW 4.3 mph6.9 kmh 29.98 in1015.2 mb 0.00 in0.0 mm 0.00 in0.0 mm 0.09 in2.3 mm